Time;durP1;ratioP1;P1;durP2;ratioP2;P2;SDS_P1;SDS_P2;PMS_P1;PMS_P2;Temp;Humidity;BMP_temperature;BMP_pressure;BME280_temperature;BME280_humidity;BME280_pressure;Samples;Min_cycle;Max_cycle;Signal;HPM_P1;HPM_P2
2022/04/07 00:01:41;;;;;;;9.95;5.55;;;9.80;99.90;;;;;;4996901;28;20160;-85
2022/04/07 00:04:07;;;;;;;11.35;5.22;;;9.80;99.90;;;;;;5004954;28;20049;-84
2022/04/07 00:06:34;;;;;;;12.25;5.13;;;9.80;99.90;;;;;;4984757;28;20048;-86
2022/04/07 00:09:02;;;;;;;11.93;5.40;;;9.70;99.90;;;;;;4967163;28;20045;-87
2022/04/07 00:11:37;;;;;;;11.05;5.63;;;9.70;99.90;;;;;;4998928;28;20041;-83
2022/04/07 00:14:03;;;;;;;11.25;6.78;;;9.60;99.90;;;;;;4995422;28;20120;-86
2022/04/07 00:16:29;;;;;;;13.77;6.93;;;9.50;99.90;;;;;;4999443;28;20440;-88
2022/04/07 00:18:57;;;;;;;13.48;7.90;;;9.40;99.90;;;;;;4973841;28;21428;-86
2022/04/07 00:21:35;;;;;;;12.93;8.45;;;9.40;99.90;;;;;;4963012;28;21163;-83
2022/04/07 00:24:03;;;;;;;13.65;8.93;;;9.40;99.90;;;;;;5009300;28;20060;-85
2022/04/07 00:26:29;;;;;;;14.27;9.20;;;9.30;99.90;;;;;;4989664;28;20061;-85
2022/04/07 00:28:55;;;;;;;13.57;9.18;;;9.30;99.90;;;;;;4958707;28;20042;-84
2022/04/07 00:31:21;;;;;;;17.48;9.30;;;9.20;99.90;;;;;;5001952;28;20462;-85
2022/04/07 00:33:50;;;;;;;15.02;8.57;;;9.20;99.90;;;;;;4964984;28;20057;-84
2022/04/07 00:36:16;;;;;;;14.15;7.97;;;9.20;99.90;;;;;;4976424;28;20045;-85
2022/04/07 00:38:49;;;;;;;12.25;8.75;;;9.20;99.90;;;;;;5019208;28;20069;-85
2022/04/07 00:41:15;;;;;;;11.70;8.63;;;9.20;99.90;;;;;;4984045;28;20045;-86
2022/04/07 00:43:41;;;;;;;8.68;4.68;;;9.20;99.90;;;;;;4995755;28;20044;-83
2022/04/07 00:46:07;;;;;;;6.38;2.17;;;9.20;99.90;;;;;;4973008;28;20044;-85
2022/04/07 00:48:37;;;;;;;4.68;1.30;;;9.10;99.90;;;;;;5005940;28;20041;-82
2022/04/07 00:51:06;;;;;;;4.88;1.30;;;9.00;99.90;;;;;;4959631;28;20118;-84
2022/04/07 00:53:35;;;;;;;4.90;1.15;;;9.00;99.90;;;;;;4996787;28;20137;-87
2022/04/07 00:56:01;;;;;;;4.75;1.50;;;8.90;99.90;;;;;;4980089;28;20123;-88
2022/04/07 00:58:34;;;;;;;4.50;1.88;;;8.90;99.90;;;;;;4994447;28;20053;-86
2022/04/07 01:01:00;;;;;;;5.50;2.50;;;8.80;99.90;;;;;;4995149;28;20041;-85
2022/04/07 01:03:27;;;;;;;6.13;3.35;;;8.90;99.90;;;;;;5003795;28;20063;-84
2022/04/07 01:05:52;;;;;;;7.90;4.78;;;8.90;99.90;;;;;;4985712;28;20068;-85
2022/04/07 01:08:18;;;;;;;11.30;7.72;;;8.90;99.90;;;;;;4983341;28;20079;-83
2022/04/07 01:10:45;;;;;;;13.45;9.13;;;8.90;99.90;;;;;;4999527;28;20380;-83
2022/04/07 01:13:12;;;;;;;11.68;8.98;;;8.90;99.90;;;;;;5007983;28;20049;-85
2022/04/07 01:15:38;;;;;;;12.27;7.53;;;8.90;99.90;;;;;;4973532;28;20056;-85
2022/04/07 01:18:05;;;;;;;7.68;5.70;;;9.00;99.90;;;;;;4996133;28;20127;-83
2022/04/07 01:20:32;;;;;;;9.43;5.75;;;8.90;99.90;;;;;;4990578;28;20425;-89
2022/04/07 01:22:58;;;;;;;10.60;7.70;;;8.90;99.90;;;;;;4951920;28;20338;-85
2022/04/07 01:25:26;;;;;;;12.68;9.18;;;8.90;99.90;;;;;;4993755;28;20038;-89
2022/04/07 01:27:55;;;;;;;16.60;11.05;;;8.80;99.90;;;;;;5003207;28;20627;-84
2022/04/07 01:30:24;;;;;;;13.32;8.88;;;8.90;99.90;;;;;;4990031;28;20053;-85
2022/04/07 01:32:52;;;;;;;11.68;9.82;;;8.90;99.90;;;;;;5002377;28;20156;-87
2022/04/07 01:35:18;;;;;;;18.13;13.40;;;9.00;99.90;;;;;;4996775;28;20114;-84
2022/04/07 01:37:47;;;;;;;17.98;13.10;;;9.00;99.90;;;;;;4976915;28;20442;-83
2022/04/07 01:40:16;;;;;;;20.90;13.38;;;9.00;99.90;;;;;;4975674;28;20037;-82
2022/04/07 01:42:45;;;;;;;15.80;13.10;;;9.10;99.90;;;;;;4987632;28;20044;-83
2022/04/07 01:45:12;;;;;;;15.48;11.63;;;9.10;99.90;;;;;;4996944;28;20399;-81
2022/04/07 01:47:41;;;;;;;17.45;12.88;;;9.10;99.90;;;;;;4997120;28;20527;-83
2022/04/07 01:50:09;;;;;;;15.32;10.00;;;9.10;99.90;;;;;;5000006;28;20053;-86
2022/04/07 01:52:37;;;;;;;14.55;9.07;;;9.10;99.90;;;;;;5000099;28;20069;-85
2022/04/07 01:55:04;;;;;;;16.60;9.68;;;9.10;99.90;;;;;;5016267;28;20590;-81
2022/04/07 01:57:31;;;;;;;14.25;8.43;;;9.10;99.90;;;;;;5010134;28;20048;-87
2022/04/07 02:00:01;;;;;;;11.48;7.43;;;9.10;99.90;;;;;;4993252;28;20107;-83
2022/04/07 02:02:28;;;;;;;11.43;7.10;;;9.10;99.90;;;;;;4975121;28;20106;-84
2022/04/07 02:05:09;;;;;;;15.90;6.82;;;9.20;99.90;;;;;;5023297;28;20049;-87
2022/04/07 02:07:36;;;;;;;15.38;7.13;;;9.20;99.90;;;;;;4983143;28;20040;-85
2022/04/07 02:10:04;;;;;;;11.82;6.10;;;9.20;99.90;;;;;;4993110;28;20488;-84
2022/04/07 02:12:30;;;;;;;14.98;6.40;;;9.20;99.90;;;;;;5003302;28;20554;-85
2022/04/07 02:14:57;;;;;;;11.73;6.30;;;9.20;99.90;;;;;;4998992;28;20588;-85
2022/04/07 02:17:23;;;;;;;11.68;6.00;;;9.20;99.90;;;;;;5003262;28;20114;-84
2022/04/07 02:19:50;;;;;;;12.25;5.75;;;9.20;99.90;;;;;;5017134;28;20407;-86
2022/04/07 02:22:16;;;;;;;11.00;5.07;;;9.20;99.90;;;;;;5001534;28;20055;-88
2022/04/07 02:24:43;;;;;;;11.30;4.90;;;9.20;99.90;;;;;;4962674;28;20124;-85
2022/04/07 02:27:09;;;;;;;12.60;6.03;;;9.20;99.90;;;;;;4972938;28;20050;-86
2022/04/07 02:29:35;;;;;;;13.35;5.88;;;9.10;99.90;;;;;;4974097;28;20041;-85
2022/04/07 02:32:01;;;;;;;10.77;5.70;;;9.20;99.90;;;;;;4979688;28;20614;-83
2022/04/07 02:34:29;;;;;;;15.57;6.78;;;9.20;99.90;;;;;;5014940;28;20045;-84
2022/04/07 02:36:55;;;;;;;13.45;6.32;;;9.20;99.90;;;;;;5015657;28;20538;-87
2022/04/07 02:39:24;;;;;;;12.23;5.78;;;9.20;99.90;;;;;;4994831;28;20540;-81
2022/04/07 02:41:49;;;;;;;15.70;6.45;;;9.20;99.90;;;;;;4998254;28;20045;-84
2022/04/07 02:44:18;;;;;;;16.83;6.03;;;9.20;99.90;;;;;;4975826;28;20090;-83
2022/04/07 02:46:44;;;;;;;18.33;6.38;;;9.20;99.90;;;;;;4988095;28;20045;-84
2022/04/07 02:49:10;;;;;;;12.25;6.05;;;9.20;99.90;;;;;;4972521;28;20556;-87
2022/04/07 02:51:36;;;;;;;14.45;5.82;;;9.20;99.90;;;;;;4968000;28;20059;-85
2022/04/07 02:54:02;;;;;;;15.23;6.32;;;9.20;99.90;;;;;;4986322;28;20060;-82
2022/04/07 02:56:31;;;;;;;15.43;5.88;;;9.20;99.90;;;;;;4979639;28;20057;-84
2022/04/07 02:58:57;;;;;;;15.65;6.20;;;9.10;99.90;;;;;;4991509;28;20045;-82
2022/04/07 03:01:23;;;;;;;16.95;6.32;;;9.10;99.90;;;;;;4970625;28;20078;-83
2022/04/07 03:03:50;;;;;;;15.65;5.72;;;9.10;99.90;;;;;;4989095;28;20120;-83
2022/04/07 03:06:16;;;;;;;19.27;7.50;;;9.10;99.90;;;;;;5012199;28;20041;-87
2022/04/07 03:08:43;;;;;;;12.90;5.95;;;9.10;99.90;;;;;;4995138;28;20643;-84
2022/04/07 03:11:10;;;;;;;17.55;6.57;;;9.00;99.90;;;;;;4968023;28;20320;-84
2022/04/07 03:13:36;;;;;;;15.55;5.93;;;9.10;99.90;;;;;;5005348;28;20180;-83
2022/04/07 03:16:03;;;;;;;16.13;6.72;;;9.10;99.90;;;;;;4963332;28;20045;-84
2022/04/07 03:18:29;;;;;;;15.02;6.20;;;9.10;99.90;;;;;;4997046;28;20075;-86
2022/04/07 03:20:55;;;;;;;15.38;6.22;;;9.00;99.90;;;;;;4988415;28;20041;-85
2022/04/07 03:23:21;;;;;;;18.58;6.60;;;9.00;99.90;;;;;;4967492;28;20049;-87
2022/04/07 03:25:47;;;;;;;14.95;5.97;;;9.00;99.90;;;;;;5005255;28;20079;-87
2022/04/07 03:28:13;;;;;;;13.30;4.80;;;9.00;99.90;;;;;;4974210;28;20046;-86
2022/04/07 03:30:39;;;;;;;14.85;5.03;;;9.00;99.90;;;;;;4976903;28;20095;-84
2022/04/07 03:33:08;;;;;;;14.07;4.80;;;9.00;99.90;;;;;;4976618;28;20088;-84
2022/04/07 03:35:36;;;;;;;11.50;3.83;;;9.00;99.90;;;;;;4997076;28;20041;-84
2022/04/07 03:38:09;;;;;;;13.30;3.97;;;9.00;99.90;;;;;;4990707;28;20037;-86
2022/04/07 03:40:35;;;;;;;10.20;3.78;;;8.90;99.90;;;;;;4996027;28;20060;-86
2022/04/07 03:43:08;;;;;;;13.60;4.13;;;9.00;99.90;;;;;;4987253;28;20303;-83
2022/04/07 03:45:34;;;;;;;11.52;3.83;;;9.00;99.90;;;;;;4999618;28;20417;-85
2022/04/07 03:48:01;;;;;;;11.32;3.60;;;9.00;99.90;;;;;;4977450;28;20045;-82
2022/04/07 03:50:27;;;;;;;11.23;4.13;;;9.00;99.90;;;;;;4989895;28;20041;-86
2022/04/07 03:52:53;;;;;;;12.45;4.65;;;9.00;99.90;;;;;;4989909;28;20107;-84
2022/04/07 03:55:20;;;;;;;15.07;4.65;;;9.00;99.90;;;;;;4972969;28;20584;-85
2022/04/07 03:57:46;;;;;;;13.18;4.80;;;9.00;99.90;;;;;;4995660;28;20182;-83
2022/04/07 04:00:12;;;;;;;11.43;5.47;;;9.10;99.90;;;;;;4970593;28;20065;-88
2022/04/07 04:02:38;;;;;;;13.65;4.80;;;9.10;99.90;;;;;;4969235;28;20041;-84
2022/04/07 04:05:04;;;;;;;14.48;4.90;;;9.10;99.90;;;;;;4967580;28;20037;-84
2022/04/07 04:07:31;;;;;;;15.43;5.00;;;9.10;99.90;;;;;;4987091;28;20425;-84
2022/04/07 04:09:56;;;;;;;17.63;5.25;;;9.10;99.90;;;;;;4994730;28;20140;-84
2022/04/07 04:12:22;;;;;;;15.20;4.95;;;9.10;99.90;;;;;;4986935;28;20114;-84
2022/04/07 04:14:48;;;;;;;13.20;5.50;;;9.10;99.90;;;;;;4990373;28;20053;-83
2022/04/07 04:17:14;;;;;;;16.08;5.88;;;9.10;99.90;;;;;;4993046;28;20451;-86
2022/04/07 04:19:40;;;;;;;14.70;5.43;;;9.10;99.90;;;;;;5033517;28;20056;-89
2022/04/07 04:22:06;;;;;;;15.98;6.63;;;9.10;99.90;;;;;;4992138;28;20473;-87
2022/04/07 04:24:35;;;;;;;22.33;6.68;;;9.10;99.90;;;;;;5004495;28;20053;-86
2022/04/07 04:27:01;;;;;;;24.70;8.40;;;9.00;99.90;;;;;;4992067;28;20080;-84
2022/04/07 04:29:26;;;;;;;20.92;6.75;;;9.00;99.90;;;;;;4993991;28;20140;-85
2022/04/07 04:31:52;;;;;;;21.65;7.43;;;9.00;99.90;;;;;;4976976;28;20042;-83
2022/04/07 04:34:18;;;;;;;24.50;8.25;;;9.00;99.90;;;;;;4995990;28;20046;-83
2022/04/07 04:36:44;;;;;;;23.10;8.15;;;8.90;99.90;;;;;;4977909;28;20102;-83
2022/04/07 04:39:12;;;;;;;23.80;7.15;;;8.90;99.90;;;;;;4977856;28;20124;-83
2022/04/07 04:41:38;;;;;;;25.27;7.50;;;9.00;99.90;;;;;;4980729;28;20045;-87
2022/04/07 04:44:04;;;;;;;26.08;7.95;;;9.00;99.90;;;;;;4967030;28;20052;-86
2022/04/07 04:46:33;;;;;;;23.20;6.97;;;9.00;99.90;;;;;;5008083;28;20052;-86
2022/04/07 04:48:59;;;;;;;22.30;7.90;;;9.00;99.90;;;;;;4978726;28;20590;-84
2022/04/07 04:51:24;;;;;;;21.85;6.78;;;9.00;99.90;;;;;;4977445;28;20050;-84
2022/04/07 04:53:50;;;;;;;22.17;6.82;;;9.00;99.90;;;;;;5014894;28;20053;-84
2022/04/07 04:56:16;;;;;;;23.65;6.88;;;9.00;99.90;;;;;;4995949;28;20162;-84
2022/04/07 04:58:48;;;;;;;26.02;6.90;;;9.00;99.90;;;;;;5000850;28;20048;-87
2022/04/07 05:01:14;;;;;;;20.42;6.28;;;9.00;99.90;;;;;;4996084;28;20041;-84
2022/04/07 05:03:40;;;;;;;21.02;6.68;;;9.00;99.90;;;;;;4997128;28;20053;-87
2022/04/07 05:06:06;;;;;;;19.10;5.20;;;9.00;99.90;;;;;;4972317;28;20047;-85
2022/04/07 05:08:35;;;;;;;17.95;4.20;;;9.00;99.90;;;;;;4991141;28;20037;-85
2022/04/07 05:11:01;;;;;;;12.55;3.45;;;8.90;99.90;;;;;;4977121;28;20041;-87
2022/04/07 05:13:27;;;;;;;12.02;2.72;;;8.70;99.90;;;;;;4996584;28;20052;-90
2022/04/07 05:15:53;;;;;;;15.05;4.20;;;8.50;99.90;;;;;;4963779;28;20049;-86
2022/04/07 05:18:20;;;;;;;21.98;6.43;;;8.30;99.90;;;;;;5016058;28;20104;-87
2022/04/07 05:20:45;;;;;;;26.20;8.45;;;8.30;99.90;;;;;;4968075;28;20076;-85
2022/04/07 05:23:12;;;;;;;31.02;10.32;;;8.30;99.90;;;;;;4992370;28;20725;-86
2022/04/07 05:25:37;;;;;;;25.80;9.18;;;8.30;99.90;;;;;;4992113;28;20073;-90
2022/04/07 05:28:09;;;;;;;27.58;10.20;;;8.40;99.90;;;;;;4977363;28;20130;-85
2022/04/07 05:30:34;;;;;;;26.23;10.00;;;8.40;99.90;;;;;;4971194;28;20257;-85
2022/04/07 05:33:00;;;;;;;25.27;11.30;;;8.50;99.90;;;;;;4999559;28;20041;-85
2022/04/07 05:35:28;;;;;;;23.23;10.55;;;8.50;99.90;;;;;;4982336;28;20069;-82
2022/04/07 05:38:02;;;;;;;21.48;9.15;;;8.50;99.90;;;;;;5006525;28;20144;-82
2022/04/07 05:40:29;;;;;;;18.02;9.00;;;8.60;99.90;;;;;;4993098;28;20548;-87
2022/04/07 05:42:55;;;;;;;22.00;9.95;;;8.60;99.90;;;;;;5001513;28;20052;-83
2022/04/07 05:45:24;;;;;;;19.00;10.27;;;8.70;99.90;;;;;;4973297;28;20044;-85
2022/04/07 05:47:52;;;;;;;16.35;9.07;;;8.70;99.90;;;;;;4983731;28;20047;-89
2022/04/07 05:50:21;;;;;;;7.78;1.10;;;8.70;99.90;;;;;;4967840;28;20133;-82
2022/04/07 05:52:47;;;;;;;5.18;1.00;;;8.30;99.90;;;;;;4970693;28;20719;-84
2022/04/07 05:55:13;;;;;;;3.15;0.60;;;7.20;99.90;;;;;;4987200;28;20061;-88
2022/04/07 05:57:45;;;;;;;4.47;0.93;;;6.20;99.90;;;;;;4974037;28;20266;-82
2022/04/07 06:00:20;;;;;;;4.30;0.80;;;5.60;99.90;;;;;;4984899;28;20049;-85
2022/04/07 06:03:04;;;;;;;5.43;1.38;;;5.20;99.90;;;;;;5002057;28;20041;-86
2022/04/07 06:05:30;;;;;;;5.60;1.10;;;4.90;99.90;;;;;;4969107;28;20076;-84
2022/04/07 06:08:00;;;;;;;5.03;1.30;;;4.80;99.90;;;;;;4988633;28;20073;-84
2022/04/07 06:10:26;;;;;;;5.30;1.60;;;4.70;99.90;;;;;;4984411;28;20428;-86
2022/04/07 06:12:52;;;;;;;8.37;1.70;;;4.70;99.90;;;;;;4968732;28;20462;-86
2022/04/07 06:15:21;;;;;;;7.87;1.70;;;4.70;99.90;;;;;;5006853;28;20045;-84
2022/04/07 06:17:47;;;;;;;7.80;2.23;;;4.80;99.90;;;;;;4988090;28;21169;-86
2022/04/07 06:20:14;;;;;;;8.40;2.17;;;4.80;99.90;;;;;;4968746;28;20049;-84
2022/04/07 06:22:41;;;;;;;9.37;1.93;;;4.90;99.90;;;;;;5000793;28;20041;-87
2022/04/07 06:25:08;;;;;;;8.57;2.30;;;5.00;99.90;;;;;;4980997;28;20512;-84
2022/04/07 06:27:35;;;;;;;8.80;2.23;;;5.10;99.90;;;;;;4987332;28;20041;-86
2022/04/07 06:30:01;;;;;;;7.10;2.17;;;5.10;99.90;;;;;;5000286;28;20547;-84
2022/04/07 06:32:33;;;;;;;9.10;2.10;;;5.20;99.90;;;;;;4972673;28;20071;-84
2022/04/07 06:34:59;;;;;;;7.10;1.90;;;5.30;99.90;;;;;;4981225;28;20053;-86
2022/04/07 06:37:25;;;;;;;7.30;1.23;;;5.20;99.90;;;;;;4974104;28;20049;-85
2022/04/07 06:40:03;;;;;;;4.70;1.30;;;5.40;99.90;;;;;;4978335;28;20037;-83
2022/04/07 06:42:29;;;;;;;4.57;1.23;;;5.20;99.90;;;;;;4968376;28;20053;-82
2022/04/07 06:44:56;;;;;;;5.53;1.60;;;5.40;99.90;;;;;;4971177;28;20041;-82
2022/04/07 06:47:25;;;;;;;4.97;1.20;;;5.40;99.90;;;;;;4986038;28;20045;-82
2022/04/07 06:49:51;;;;;;;5.73;1.37;;;5.40;99.90;;;;;;4993265;28;20604;-85
2022/04/07 06:52:18;;;;;;;4.73;1.43;;;5.50;99.90;;;;;;5006518;28;20063;-84
2022/04/07 06:54:44;;;;;;;5.33;1.07;;;5.50;99.90;;;;;;4957142;28;20152;-87
2022/04/07 06:57:11;;;;;;;5.77;1.13;;;5.60;99.90;;;;;;4980908;28;20045;-83
2022/04/07 06:59:37;;;;;;;4.13;1.00;;;5.60;99.90;;;;;;4979985;28;20053;-82
2022/04/07 07:02:06;;;;;;;5.10;1.17;;;5.70;99.90;;;;;;4967395;28;20052;-82
2022/04/07 07:04:35;;;;;;;3.80;0.65;;;5.60;99.90;;;;;;4976010;28;20056;-82
2022/04/07 07:07:01;;;;;;;4.27;1.17;;;5.70;99.90;;;;;;4984131;28;20051;-82
2022/04/07 07:09:27;;;;;;;4.07;0.73;;;5.70;99.90;;;;;;4982013;28;20045;-82
2022/04/07 07:11:52;;;;;;;4.67;0.87;;;5.70;99.90;;;;;;4999067;28;20595;-83
2022/04/07 07:14:18;;;;;;;4.47;1.03;;;5.70;99.90;;;;;;4969247;28;20430;-86
2022/04/07 07:16:44;;;;;;;4.27;1.00;;;5.70;99.90;;;;;;4984851;28;20049;-81
2022/04/07 07:19:10;;;;;;;3.33;1.00;;;5.70;99.90;;;;;;5000437;28;20401;-82
2022/04/07 07:21:36;;;;;;;4.87;0.80;;;5.70;99.90;;;;;;4983769;28;20049;-81
2022/04/07 07:24:03;;;;;;;4.13;1.10;;;5.70;99.90;;;;;;5000394;28;20049;-83
2022/04/07 07:26:29;;;;;;;4.57;1.07;;;5.70;99.90;;;;;;4965721;28;20049;-84
2022/04/07 07:28:55;;;;;;;5.00;1.10;;;5.80;99.90;;;;;;4987317;28;20381;-81
2022/04/07 07:31:20;;;;;;;4.90;1.40;;;5.80;99.90;;;;;;4964966;28;20084;-83
2022/04/07 07:33:46;;;;;;;6.57;1.20;;;5.80;99.90;;;;;;4955796;28;20056;-80
2022/04/07 07:36:12;;;;;;;4.87;1.47;;;5.80;99.90;;;;;;4962245;28;20617;-81
2022/04/07 07:38:38;;;;;;;4.80;1.00;;;5.70;99.90;;;;;;4975397;28;20531;-81
2022/04/07 07:41:04;;;;;;;6.83;1.50;;;5.70;99.90;;;;;;5003848;28;20041;-83
2022/04/07 07:43:30;;;;;;;4.77;1.27;;;5.80;99.90;;;;;;4968574;28;20167;-82
2022/04/07 07:45:56;;;;;;;3.50;0.90;;;5.80;99.90;;;;;;4988437;28;20443;-83
2022/04/07 07:48:28;;;;;;;6.10;1.13;;;5.80;99.90;;;;;;4972578;28;20118;-81
2022/04/07 07:50:55;;;;;;;5.87;1.30;;;5.80;99.90;;;;;;4987427;28;20525;-83
2022/04/07 07:53:21;;;;;;;4.10;1.03;;;5.80;99.90;;;;;;4989891;28;20057;-80
2022/04/07 07:55:48;;;;;;;5.27;1.13;;;5.80;99.90;;;;;;4995273;28;20189;-82
2022/04/07 07:58:14;;;;;;;4.45;1.25;;;5.80;99.90;;;;;;4975341;28;20049;-83
2022/04/07 08:00:40;;;;;;;6.27;1.67;;;5.90;99.90;;;;;;4992409;28;20046;-84
2022/04/07 08:03:06;;;;;;;5.23;1.30;;;5.90;99.90;;;;;;4974607;28;20134;-83
2022/04/07 08:05:31;;;;;;;5.30;1.20;;;6.00;99.90;;;;;;4976322;28;20052;-84
2022/04/07 08:08:04;;;;;;;7.03;1.20;;;6.00;99.90;;;;;;4989796;28;20068;-86
2022/04/07 08:10:37;;;;;;;7.07;1.27;;;6.00;99.90;;;;;;5018431;28;20045;-82
2022/04/07 08:13:06;;;;;;;4.57;0.90;;;6.10;99.90;;;;;;4998949;28;20991;-82
2022/04/07 08:15:35;;;;;;;4.23;1.40;;;6.10;99.90;;;;;;4990612;28;20492;-82
2022/04/07 08:18:01;;;;;;;4.82;1.50;;;6.20;99.90;;;;;;4989382;28;20045;-81
2022/04/07 08:20:36;;;;;;;5.22;1.23;;;6.20;99.90;;;;;;4975889;28;20322;-86
2022/04/07 08:23:05;;;;;;;5.95;1.40;;;6.30;99.90;;;;;;4992407;28;20114;-82
2022/04/07 08:25:31;;;;;;;6.20;1.20;;;6.30;99.90;;;;;;4988515;28;20159;-82
2022/04/07 08:27:57;;;;;;;4.57;1.30;;;6.30;99.90;;;;;;4983437;28;20052;-86
2022/04/07 08:30:26;;;;;;;5.55;1.10;;;6.40;99.90;;;;;;4985390;28;20045;-86
2022/04/07 08:32:52;;;;;;;4.95;1.13;;;6.50;99.90;;;;;;4967322;28;20050;-81
2022/04/07 08:35:18;;;;;;;3.78;1.17;;;6.50;99.90;;;;;;4975036;28;20060;-82
2022/04/07 08:37:43;;;;;;;6.20;1.40;;;6.60;99.90;;;;;;4975249;28;20052;-82
2022/04/07 08:40:09;;;;;;;6.03;1.30;;;6.70;99.90;;;;;;4975249;28;20065;-83
2022/04/07 08:42:37;;;;;;;5.45;1.48;;;7.00;99.90;;;;;;4989826;28;20056;-81
2022/04/07 08:45:04;;;;;;;6.45;1.23;;;7.30;99.90;;;;;;4976376;28;20053;-81
2022/04/07 08:47:31;;;;;;;5.32;1.50;;;7.60;99.90;;;;;;4986962;28;20068;-84
2022/04/07 08:50:03;;;;;;;4.05;1.00;;;7.70;99.90;;;;;;4968407;28;20091;-85
2022/04/07 08:52:29;;;;;;;5.50;0.98;;;7.80;99.90;;;;;;4986938;28;20037;-85
2022/04/07 08:55:06;;;;;;;4.47;1.08;;;8.00;99.90;;;;;;4966281;28;20056;-84
2022/04/07 08:57:39;;;;;;;3.38;1.00;;;8.10;99.90;;;;;;4960917;28;20061;-87
2022/04/07 09:00:06;;;;;;;5.78;1.00;;;8.20;99.90;;;;;;4999046;28;20061;-84
2022/04/07 09:02:35;;;;;;;7.88;1.20;;;8.40;99.90;;;;;;4990249;28;20077;-88
2022/04/07 09:05:01;;;;;;;4.22;0.90;;;8.60;99.90;;;;;;4972489;28;20521;-87
2022/04/07 09:07:34;;;;;;;4.95;1.25;;;8.70;99.90;;;;;;4958618;28;20053;-87
2022/04/07 09:10:01;;;;;;;5.60;1.20;;;8.80;99.90;;;;;;4961966;28;20069;-87
2022/04/07 09:12:27;;;;;;;6.82;1.40;;;9.00;99.90;;;;;;4973309;28;20283;-85
2022/04/07 09:15:08;;;;;;;6.28;1.38;;;9.20;99.90;;;;;;4954202;28;20037;-86
2022/04/07 09:17:49;;;;;;;8.38;1.30;;;9.30;99.90;;;;;;4980852;28;20049;-85
2022/04/07 09:20:15;;;;;;;6.22;1.23;;;9.50;99.90;;;;;;4998421;28;20496;-86
2022/04/07 09:22:41;;;;;;;7.65;1.08;;;9.60;99.90;;;;;;4972497;28;20042;-88
2022/04/07 09:25:07;;;;;;;6.13;1.08;;;9.70;99.90;;;;;;4958354;28;20754;-88
2022/04/07 09:27:33;;;;;;;6.60;1.23;;;9.70;99.90;;;;;;4993051;28;20551;-87
2022/04/07 09:30:00;;;;;;;8.05;1.20;;;9.80;99.90;;;;;;4984362;28;20037;-84
2022/04/07 09:32:26;;;;;;;5.43;1.05;;;9.70;99.90;;;;;;4971642;28;20081;-88
2022/04/07 09:34:54;;;;;;;8.68;1.80;;;9.70;99.90;;;;;;4991714;28;20096;-86
2022/04/07 09:37:25;;;;;;;11.43;1.73;;;9.80;99.90;;;;;;4991388;28;20045;-89
2022/04/07 09:40:13;;;;;;;6.80;1.30;;;9.80;99.90;;;;;;4968055;28;20136;-85
2022/04/07 09:42:42;;;;;;;4.90;1.48;;;9.80;99.90;;;;;;4984566;28;20067;-83
2022/04/07 09:45:13;;;;;;;7.28;1.40;;;9.70;99.90;;;;;;4992691;28;20439;-85
2022/04/07 09:47:43;;;;;;;10.52;1.90;;;9.60;99.90;;;;;;4976400;28;20107;-89
2022/04/07 09:50:20;;;;;;;5.88;1.85;;;9.50;99.90;;;;;;4985130;28;20052;-85
2022/04/07 09:52:56;;;;;;;6.50;1.77;;;9.50;99.90;;;;;;4988502;28;20356;-84
2022/04/07 09:55:44;;;;;;;8.55;1.88;;;9.60;99.90;;;;;;4988867;28;20187;-85
2022/04/07 09:58:14;;;;;;;6.88;1.70;;;9.70;99.90;;;;;;5005963;28;20128;-88
2022/04/07 10:00:40;;;;;;;8.10;1.83;;;9.70;99.90;;;;;;4959609;28;20067;-85
2022/04/07 10:03:08;;;;;;;9.27;2.03;;;9.70;99.90;;;;;;4971992;28;20048;-80
2022/04/07 10:05:34;;;;;;;11.05;2.45;;;9.60;99.90;;;;;;4991581;28;20081;-85
2022/04/07 10:08:05;;;;;;;11.68;2.47;;;9.60;99.90;;;;;;4970732;28;20496;-86
2022/04/07 10:10:31;;;;;;;9.88;1.67;;;9.40;99.90;;;;;;4990131;28;20044;-80
2022/04/07 10:13:00;;;;;;;12.38;2.53;;;9.20;99.90;;;;;;4997746;28;20408;-83
2022/04/07 10:15:27;;;;;;;10.80;2.20;;;9.20;99.90;;;;;;4980988;28;20602;-86
2022/04/07 10:17:58;;;;;;;11.68;2.70;;;9.20;99.90;;;;;;5005489;28;20095;-78
2022/04/07 10:20:33;;;;;;;8.88;2.47;;;9.30;99.90;;;;;;5008420;28;20045;-86
2022/04/07 10:23:23;;;;;;;9.05;2.15;;;9.40;99.90;;;;;;4990937;28;20366;-82
2022/04/07 10:25:50;;;;;;;11.80;2.60;;;9.30;99.90;;;;;;4997956;28;20111;-81
2022/04/07 10:28:19;;;;;;;11.95;2.90;;;9.20;99.90;;;;;;4972345;28;20663;-84
2022/04/07 10:30:53;;;;;;;12.18;2.70;;;9.00;99.90;;;;;;4988525;28;20038;-81
2022/04/07 10:33:42;;;;;;;11.00;2.55;;;9.00;99.90;;;;;;4973768;28;20153;-82
2022/04/07 10:36:19;;;;;;;15.35;2.83;;;9.10;99.90;;;;;;5008721;28;20053;-84
2022/04/07 10:38:47;;;;;;;12.32;2.83;;;9.50;99.90;;;;;;4982910;28;20083;-81
2022/04/07 10:41:38;;;;;;;10.25;2.35;;;9.70;99.90;;;;;;4975731;28;20037;-80
2022/04/07 10:44:14;;;;;;;10.15;2.25;;;9.80;99.90;;;;;;4989514;28;20046;-85
2022/04/07 10:46:41;;;;;;;10.18;2.63;;;9.80;99.90;;;;;;4978506;28;20499;-85
2022/04/07 10:49:09;;;;;;;10.63;2.30;;;9.90;99.90;;;;;;4987754;28;20073;-80
2022/04/07 10:51:55;;;;;;;10.50;2.90;;;10.00;99.90;;;;;;5006319;28;20048;-83
2022/04/07 10:54:21;;;;;;;16.48;3.22;;;10.00;99.90;;;;;;4980871;28;20506;-85
2022/04/07 10:56:56;;;;;;;8.98;2.30;;;9.90;99.90;;;;;;4969426;28;20045;-87
2022/04/07 10:59:27;;;;;;;13.82;2.67;;;9.70;99.90;;;;;;5001009;28;20139;-84
2022/04/07 11:02:11;;;;;;;14.07;2.88;;;9.40;99.90;;;;;;4979524;28;20183;-85
2022/04/07 11:04:57;;;;;;;12.77;2.80;;;9.30;99.90;;;;;;5005415;28;20041;-85
2022/04/07 11:07:23;;;;;;;10.10;2.05;;;9.20;99.90;;;;;;4978104;28;20049;-82
2022/04/07 11:09:55;;;;;;;9.40;2.45;;;9.10;99.90;;;;;;4974704;28;20049;-83
2022/04/07 11:12:28;;;;;;;13.43;2.95;;;9.00;99.90;;;;;;4979857;28;20111;-86
2022/04/07 11:15:28;;;;;;;8.73;1.85;;;8.90;99.90;;;;;;4997043;28;20053;-81
2022/04/07 11:18:16;;;;;;;9.73;2.33;;;9.00;99.90;;;;;;4981743;28;20065;-88
2022/04/07 11:21:09;;;;;;;8.52;1.63;;;8.70;99.90;;;;;;4986679;28;20072;-85
2022/04/07 11:23:42;;;;;;;12.25;2.80;;;8.40;99.90;;;;;;4989813;28;20037;-84
2022/04/07 11:26:20;;;;;;;10.30;2.28;;;8.50;99.90;;;;;;4988998;28;20049;-86
2022/04/07 11:29:03;;;;;;;;;;;8.80;99.90;;;;;;5006935;28;20192;-87
2022/04/07 11:31:48;;;;;;;14.48;3.28;;;9.10;99.90;;;;;;5003296;28;19975;-82
2022/04/07 11:34:36;;;;;;;14.20;3.53;;;9.50;99.90;;;;;;4983202;28;20404;-85
2022/04/07 11:37:15;;;;;;;12.20;3.35;;;9.90;99.90;;;;;;4982188;28;20401;-86
2022/04/07 11:39:46;;;;;;;13.55;3.40;;;10.00;99.90;;;;;;4999614;28;20076;-86
2022/04/07 11:42:13;;;;;;;14.23;2.97;;;10.10;99.90;;;;;;4984094;28;20488;-85
2022/04/07 11:44:43;;;;;;;14.68;3.40;;;10.20;99.90;;;;;;4970912;28;20876;-85
2022/04/07 11:47:26;;;;;;;14.30;3.47;;;10.10;99.90;;;;;;4967963;28;20034;-88
2022/04/07 11:49:52;;;;;;;12.05;2.28;;;10.20;99.90;;;;;;4969063;28;20049;-81
2022/04/07 11:52:29;;;;;;;9.02;2.65;;;10.20;99.90;;;;;;4982920;28;20052;-84
2022/04/07 11:54:57;;;;;;;14.70;2.75;;;10.10;99.90;;;;;;4973225;28;20144;-85
2022/04/07 11:57:24;;;;;;;9.90;2.35;;;9.90;99.90;;;;;;4980999;28;20056;-78
2022/04/07 11:59:53;;;;;;;13.65;2.53;;;9.80;99.90;;;;;;4982927;28;20200;-82
2022/04/07 12:02:42;;;;;;;13.07;3.10;;;9.70;99.90;;;;;;4985418;28;20048;-89
2022/04/07 12:05:14;;;;;;;11.40;2.65;;;9.80;99.90;;;;;;4997583;28;20056;-87
2022/04/07 12:07:40;;;;;;;9.93;2.38;;;9.80;99.90;;;;;;4968478;28;20107;-87
2022/04/07 12:10:14;;;;;;;13.70;3.40;;;9.90;99.90;;;;;;4955082;28;20045;-88
2022/04/07 12:12:43;;;;;;;9.40;2.35;;;10.10;99.90;;;;;;4985010;28;20049;-82
2022/04/07 12:15:10;;;;;;;13.85;2.83;;;10.40;99.90;;;;;;4982191;28;20079;-83
2022/04/07 12:17:56;;;;;;;12.85;2.80;;;10.40;99.90;;;;;;4980114;28;20045;-83
2022/04/07 12:20:23;;;;;;;11.85;2.70;;;10.40;99.90;;;;;;4972199;28;20096;-85
2022/04/07 12:23:13;;;;;;;11.43;2.25;;;10.40;99.90;;;;;;4970106;28;20115;-84
2022/04/07 12:25:41;;;;;;;13.23;2.72;;;10.40;99.90;;;;;;5003605;28;20056;-87
2022/04/07 12:28:07;;;;;;;10.23;2.47;;;10.40;99.90;;;;;;4986866;28;20071;-83
2022/04/07 12:30:53;;;;;;;11.30;2.45;;;10.30;99.90;;;;;;4986533;28;20088;-87
2022/04/07 12:33:39;;;;;;;11.00;2.63;;;10.30;99.90;;;;;;4988068;28;20111;-84
2022/04/07 12:36:13;;;;;;;12.75;2.38;;;10.40;99.90;;;;;;4973714;28;20053;-88
2022/04/07 12:38:41;;;;;;;9.60;2.45;;;10.60;99.90;;;;;;4992004;28;20176;-78
2022/04/07 12:41:15;;;;;;;9.77;2.30;;;10.70;99.90;;;;;;4989380;28;20735;-84
2022/04/07 12:43:50;;;;;;;9.63;1.52;;;10.60;99.90;;;;;;4979189;28;20061;-79
2022/04/07 12:46:18;;;;;;;15.95;2.30;;;10.60;99.90;;;;;;4973995;28;20045;-83
2022/04/07 12:49:04;;;;;;;11.18;2.47;;;10.80;99.90;;;;;;4987170;28;21775;-82
2022/04/07 12:51:37;;;;;;;10.52;1.77;;;10.70;99.90;;;;;;4974082;28;20133;-84
2022/04/07 12:54:09;;;;;;;15.10;2.30;;;10.10;99.90;;;;;;4984238;28;20512;-77
2022/04/07 12:56:36;;;;;;;8.55;1.73;;;9.60;99.90;;;;;;4993633;28;20065;-85
2022/04/07 12:59:05;;;;;;;8.27;2.10;;;8.80;99.90;;;;;;5002019;28;20050;-82
2022/04/07 13:01:31;;;;;;;11.02;2.03;;;8.40;99.90;;;;;;4987275;28;20045;-81